sensor_id;sensor_type;location;lat;lon;timestamp;P1;durP1;ratioP1;P2;durP2;ratioP2
9072;SDS011;4572;41.642;25.370;2023-02-24T00:01:40;29.87;;;15.20;;
9072;SDS011;4572;41.642;25.370;2023-02-24T00:04:11;33.97;;;15.87;;
9072;SDS011;4572;41.642;25.370;2023-02-24T00:06:41;31.37;;;14.63;;
9072;SDS011;4572;41.642;25.370;2023-02-24T00:09:11;26.07;;;14.83;;
9072;SDS011;4572;41.642;25.370;2023-02-24T00:11:43;30.07;;;14.90;;
9072;SDS011;4572;41.642;25.370;2023-02-24T00:14:10;26.13;;;14.60;;
9072;SDS011;4572;41.642;25.370;2023-02-24T00:16:40;28.77;;;14.33;;
9072;SDS011;4572;41.642;25.370;2023-02-24T00:19:06;29.33;;;13.93;;
9072;SDS011;4572;41.642;25.370;2023-02-24T00:21:32;29.27;;;13.20;;
9072;SDS011;4572;41.642;25.370;2023-02-24T00:23:59;25.20;;;11.40;;
9072;SDS011;4572;41.642;25.370;2023-02-24T00:26:25;22.43;;;11.27;;
9072;SDS011;4572;41.642;25.370;2023-02-24T00:28:53;25.80;;;11.90;;
9072;SDS011;4572;41.642;25.370;2023-02-24T00:31:24;24.03;;;11.30;;
9072;SDS011;4572;41.642;25.370;2023-02-24T00:33:50;22.83;;;10.67;;
9072;SDS011;4572;41.642;25.370;2023-02-24T00:36:17;25.67;;;11.57;;
9072;SDS011;4572;41.642;25.370;2023-02-24T00:38:54;35.10;;;10.70;;
9072;SDS011;4572;41.642;25.370;2023-02-24T00:41:31;20.80;;;10.77;;
9072;SDS011;4572;41.642;25.370;2023-02-24T00:44:01;29.63;;;12.87;;
9072;SDS011;4572;41.642;25.370;2023-02-24T00:46:30;25.67;;;12.83;;
9072;SDS011;4572;41.642;25.370;2023-02-24T00:48:59;25.90;;;14.07;;
9072;SDS011;4572;41.642;25.370;2023-02-24T00:51:29;32.30;;;13.97;;
9072;SDS011;4572;41.642;25.370;2023-02-24T00:53:58;26.37;;;13.27;;
9072;SDS011;4572;41.642;25.370;2023-02-24T00:56:24;29.63;;;13.87;;
9072;SDS011;4572;41.642;25.370;2023-02-24T00:58:54;22.00;;;13.90;;
9072;SDS011;4572;41.642;25.370;2023-02-24T01:01:22;26.10;;;13.03;;
9072;SDS011;4572;41.642;25.370;2023-02-24T01:03:49;25.33;;;12.63;;
9072;SDS011;4572;41.642;25.370;2023-02-24T01:06:18;26.40;;;13.47;;
9072;SDS011;4572;41.642;25.370;2023-02-24T01:08:45;22.13;;;12.43;;
9072;SDS011;4572;41.642;25.370;2023-02-24T01:11:14;21.73;;;12.60;;
9072;SDS011;4572;41.642;25.370;2023-02-24T01:14:02;28.10;;;13.13;;
9072;SDS011;4572;41.642;25.370;2023-02-24T01:16:48;24.27;;;13.03;;
9072;SDS011;4572;41.642;25.370;2023-02-24T01:19:17;24.10;;;12.10;;
9072;SDS011;4572;41.642;25.370;2023-02-24T01:21:44;34.13;;;12.73;;
9072;SDS011;4572;41.642;25.370;2023-02-24T01:24:10;23.10;;;12.27;;
9072;SDS011;4572;41.642;25.370;2023-02-24T01:26:36;21.47;;;11.47;;
9072;SDS011;4572;41.642;25.370;2023-02-24T01:29:02;18.20;;;10.13;;
9072;SDS011;4572;41.642;25.370;2023-02-24T01:31:34;19.00;;;9.50;;
9072;SDS011;4572;41.642;25.370;2023-02-24T01:34:03;18.67;;;8.77;;
9072;SDS011;4572;41.642;25.370;2023-02-24T01:36:30;19.53;;;8.50;;
9072;SDS011;4572;41.642;25.370;2023-02-24T01:38:57;25.73;;;9.03;;
9072;SDS011;4572;41.642;25.370;2023-02-24T01:41:24;16.73;;;8.27;;
9072;SDS011;4572;41.642;25.370;2023-02-24T01:46:33;26.40;;;12.20;;
9072;SDS011;4572;41.642;25.370;2023-02-24T01:49:12;27.03;;;11.97;;
9072;SDS011;4572;41.642;25.370;2023-02-24T01:51:48;25.63;;;12.63;;
9072;SDS011;4572;41.642;25.370;2023-02-24T01:54:15;23.10;;;12.77;;
9072;SDS011;4572;41.642;25.370;2023-02-24T01:56:43;25.57;;;12.83;;
9072;SDS011;4572;41.642;25.370;2023-02-24T01:59:10;21.83;;;12.63;;
9072;SDS011;4572;41.642;25.370;2023-02-24T02:01:36;26.60;;;12.03;;
9072;SDS011;4572;41.642;25.370;2023-02-24T02:04:06;23.53;;;11.63;;
9072;SDS011;4572;41.642;25.370;2023-02-24T02:06:42;18.00;;;8.93;;
9072;SDS011;4572;41.642;25.370;2023-02-24T02:09:08;17.77;;;10.07;;
9072;SDS011;4572;41.642;25.370;2023-02-24T02:11:34;21.53;;;10.60;;
9072;SDS011;4572;41.642;25.370;2023-02-24T02:13:59;20.80;;;9.20;;
9072;SDS011;4572;41.642;25.370;2023-02-24T02:19:27;23.50;;;10.43;;
9072;SDS011;4572;41.642;25.370;2023-02-24T02:22:48;22.87;;;10.63;;
9072;SDS011;4572;41.642;25.370;2023-02-24T02:33:55;17.50;;;8.03;;
9072;SDS011;4572;41.642;25.370;2023-02-24T02:39:27;18.67;;;7.53;;
9072;SDS011;4572;41.642;25.370;2023-02-24T02:44:37;14.50;;;6.97;;
9072;SDS011;4572;41.642;25.370;2023-02-24T02:47:22;10.87;;;5.70;;
9072;SDS011;4572;41.642;25.370;2023-02-24T02:49:51;12.80;;;5.93;;
9072;SDS011;4572;41.642;25.370;2023-02-24T02:52:27;12.47;;;6.53;;
9072;SDS011;4572;41.642;25.370;2023-02-24T02:54:59;14.17;;;5.80;;
9072;SDS011;4572;41.642;25.370;2023-02-24T02:57:29;13.40;;;5.43;;
9072;SDS011;4572;41.642;25.370;2023-02-24T03:00:17;11.33;;;5.50;;
9072;SDS011;4572;41.642;25.370;2023-02-24T03:02:47;15.17;;;7.17;;
9072;SDS011;4572;41.642;25.370;2023-02-24T03:05:15;18.03;;;7.10;;
9072;SDS011;4572;41.642;25.370;2023-02-24T03:07:45;18.37;;;8.80;;
9072;SDS011;4572;41.642;25.370;2023-02-24T03:10:19;13.67;;;6.83;;
9072;SDS011;4572;41.642;25.370;2023-02-24T03:12:51;11.03;;;6.60;;
9072;SDS011;4572;41.642;25.370;2023-02-24T03:15:19;13.47;;;7.87;;
9072;SDS011;4572;41.642;25.370;2023-02-24T03:17:46;15.23;;;7.83;;
9072;SDS011;4572;41.642;25.370;2023-02-24T03:20:15;15.23;;;7.57;;
9072;SDS011;4572;41.642;25.370;2023-02-24T03:22:49;20.03;;;8.33;;
9072;SDS011;4572;41.642;25.370;2023-02-24T03:25:21;16.90;;;7.27;;
9072;SDS011;4572;41.642;25.370;2023-02-24T03:27:52;14.03;;;7.50;;
9072;SDS011;4572;41.642;25.370;2023-02-24T03:30:26;13.40;;;6.77;;
9072;SDS011;4572;41.642;25.370;2023-02-24T03:33:04;13.23;;;7.23;;
9072;SDS011;4572;41.642;25.370;2023-02-24T03:35:40;13.23;;;7.80;;
9072;SDS011;4572;41.642;25.370;2023-02-24T03:38:08;17.80;;;8.07;;
9072;SDS011;4572;41.642;25.370;2023-02-24T03:40:38;13.57;;;6.70;;
9072;SDS011;4572;41.642;25.370;2023-02-24T03:43:15;14.87;;;5.60;;
9072;SDS011;4572;41.642;25.370;2023-02-24T03:45:43;9.93;;;4.67;;
9072;SDS011;4572;41.642;25.370;2023-02-24T03:48:10;13.20;;;5.07;;
9072;SDS011;4572;41.642;25.370;2023-02-24T03:50:37;10.37;;;4.57;;
9072;SDS011;4572;41.642;25.370;2023-02-24T03:53:11;10.03;;;4.70;;
9072;SDS011;4572;41.642;25.370;2023-02-24T03:55:50;8.40;;;4.13;;
9072;SDS011;4572;41.642;25.370;2023-02-24T04:01:29;6.50;;;3.80;;
9072;SDS011;4572;41.642;25.370;2023-02-24T04:04:04;7.17;;;3.77;;
9072;SDS011;4572;41.642;25.370;2023-02-24T04:11:48;10.63;;;4.20;;
9072;SDS011;4572;41.642;25.370;2023-02-24T04:14:20;7.50;;;3.40;;
9072;SDS011;4572;41.642;25.370;2023-02-24T04:19:38;5.30;;;3.23;;
9072;SDS011;4572;41.642;25.370;2023-02-24T04:22:05;9.03;;;3.73;;
9072;SDS011;4572;41.642;25.370;2023-02-24T04:24:34;9.03;;;3.40;;
9072;SDS011;4572;41.642;25.370;2023-02-24T04:27:02;6.83;;;3.13;;
9072;SDS011;4572;41.642;25.370;2023-02-24T04:29:31;8.07;;;3.57;;
9072;SDS011;4572;41.642;25.370;2023-02-24T04:32:01;5.77;;;3.00;;
9072;SDS011;4572;41.642;25.370;2023-02-24T04:34:29;11.83;;;3.93;;
9072;SDS011;4572;41.642;25.370;2023-02-24T04:36:57;9.97;;;3.63;;
9072;SDS011;4572;41.642;25.370;2023-02-24T04:39:23;9.97;;;3.30;;
9072;SDS011;4572;41.642;25.370;2023-02-24T04:41:49;9.80;;;3.87;;
9072;SDS011;4572;41.642;25.370;2023-02-24T04:44:15;8.10;;;3.57;;
9072;SDS011;4572;41.642;25.370;2023-02-24T04:46:42;9.47;;;3.43;;
9072;SDS011;4572;41.642;25.370;2023-02-24T04:49:10;8.60;;;4.00;;
9072;SDS011;4572;41.642;25.370;2023-02-24T04:51:37;8.13;;;3.43;;
9072;SDS011;4572;41.642;25.370;2023-02-24T04:54:07;7.90;;;3.73;;
9072;SDS011;4572;41.642;25.370;2023-02-24T04:56:34;8.57;;;3.83;;
9072;SDS011;4572;41.642;25.370;2023-02-24T04:59:00;10.93;;;4.47;;
9072;SDS011;4572;41.642;25.370;2023-02-24T05:01:26;8.37;;;4.20;;
9072;SDS011;4572;41.642;25.370;2023-02-24T05:03:52;11.20;;;4.50;;
9072;SDS011;4572;41.642;25.370;2023-02-24T05:06:18;11.90;;;4.57;;
9072;SDS011;4572;41.642;25.370;2023-02-24T05:08:43;5.63;;;3.50;;
9072;SDS011;4572;41.642;25.370;2023-02-24T05:11:13;13.07;;;4.17;;
9072;SDS011;4572;41.642;25.370;2023-02-24T05:13:43;8.60;;;3.57;;
9072;SDS011;4572;41.642;25.370;2023-02-24T05:16:13;18.97;;;3.83;;
9072;SDS011;4572;41.642;25.370;2023-02-24T05:18:41;11.47;;;4.13;;
9072;SDS011;4572;41.642;25.370;2023-02-24T05:21:09;7.90;;;3.10;;
9072;SDS011;4572;41.642;25.370;2023-02-24T05:23:55;12.53;;;3.90;;
9072;SDS011;4572;41.642;25.370;2023-02-24T05:26:23;26.77;;;4.40;;
9072;SDS011;4572;41.642;25.370;2023-02-24T05:28:56;12.83;;;3.93;;
9072;SDS011;4572;41.642;25.370;2023-02-24T05:31:24;8.97;;;4.63;;
9072;SDS011;4572;41.642;25.370;2023-02-24T05:33:53;10.80;;;4.07;;
9072;SDS011;4572;41.642;25.370;2023-02-24T05:36:20;9.40;;;4.40;;
9072;SDS011;4572;41.642;25.370;2023-02-24T05:38:47;9.80;;;4.40;;
9072;SDS011;4572;41.642;25.370;2023-02-24T05:41:16;7.27;;;3.63;;
9072;SDS011;4572;41.642;25.370;2023-02-24T05:43:45;14.47;;;5.53;;
9072;SDS011;4572;41.642;25.370;2023-02-24T05:46:16;12.23;;;5.23;;
9072;SDS011;4572;41.642;25.370;2023-02-24T05:48:42;13.07;;;5.73;;
9072;SDS011;4572;41.642;25.370;2023-02-24T05:51:08;17.47;;;5.97;;
9072;SDS011;4572;41.642;25.370;2023-02-24T05:53:36;10.83;;;5.23;;
9072;SDS011;4572;41.642;25.370;2023-02-24T05:56:06;7.53;;;4.50;;
9072;SDS011;4572;41.642;25.370;2023-02-24T05:58:32;13.23;;;5.40;;
9072;SDS011;4572;41.642;25.370;2023-02-24T06:00:58;8.77;;;5.17;;
9072;SDS011;4572;41.642;25.370;2023-02-24T06:03:31;14.47;;;6.27;;
9072;SDS011;4572;41.642;25.370;2023-02-24T06:06:00;11.67;;;6.50;;
9072;SDS011;4572;41.642;25.370;2023-02-24T06:08:33;12.03;;;6.43;;
9072;SDS011;4572;41.642;25.370;2023-02-24T06:11:09;19.23;;;8.23;;
9072;SDS011;4572;41.642;25.370;2023-02-24T06:13:38;11.73;;;6.40;;
9072;SDS011;4572;41.642;25.370;2023-02-24T06:16:04;16.90;;;5.03;;
9072;SDS011;4572;41.642;25.370;2023-02-24T06:18:30;11.47;;;6.77;;
9072;SDS011;4572;41.642;25.370;2023-02-24T06:20:56;11.50;;;6.07;;
9072;SDS011;4572;41.642;25.370;2023-02-24T06:23:25;10.43;;;5.33;;
9072;SDS011;4572;41.642;25.370;2023-02-24T06:25:51;19.27;;;7.00;;
9072;SDS011;4572;41.642;25.370;2023-02-24T06:28:17;9.40;;;5.07;;
9072;SDS011;4572;41.642;25.370;2023-02-24T06:30:44;21.30;;;7.73;;
9072;SDS011;4572;41.642;25.370;2023-02-24T06:33:09;13.00;;;6.63;;
9072;SDS011;4572;41.642;25.370;2023-02-24T06:35:35;13.90;;;7.93;;
9072;SDS011;4572;41.642;25.370;2023-02-24T06:38:03;13.47;;;6.80;;
9072;SDS011;4572;41.642;25.370;2023-02-24T06:40:28;11.43;;;5.93;;
9072;SDS011;4572;41.642;25.370;2023-02-24T06:42:55;13.10;;;7.60;;
9072;SDS011;4572;41.642;25.370;2023-02-24T06:45:21;16.40;;;8.20;;
9072;SDS011;4572;41.642;25.370;2023-02-24T06:47:48;13.67;;;5.73;;
9072;SDS011;4572;41.642;25.370;2023-02-24T06:50:15;12.60;;;4.57;;
9072;SDS011;4572;41.642;25.370;2023-02-24T06:52:46;12.53;;;6.80;;
9072;SDS011;4572;41.642;25.370;2023-02-24T06:55:13;24.13;;;12.27;;
9072;SDS011;4572;41.642;25.370;2023-02-24T06:57:55;14.00;;;6.30;;
9072;SDS011;4572;41.642;25.370;2023-02-24T07:00:25;10.17;;;5.33;;
9072;SDS011;4572;41.642;25.370;2023-02-24T07:03:05;16.07;;;5.10;;
9072;SDS011;4572;41.642;25.370;2023-02-24T07:05:49;9.33;;;4.57;;
9072;SDS011;4572;41.642;25.370;2023-02-24T07:08:35;16.23;;;5.90;;
9072;SDS011;4572;41.642;25.370;2023-02-24T07:11:01;11.63;;;5.43;;
9072;SDS011;4572;41.642;25.370;2023-02-24T07:13:31;10.17;;;4.57;;
9072;SDS011;4572;41.642;25.370;2023-02-24T07:15:58;10.83;;;5.57;;
9072;SDS011;4572;41.642;25.370;2023-02-24T07:18:31;14.73;;;5.73;;
9072;SDS011;4572;41.642;25.370;2023-02-24T07:21:00;14.37;;;5.97;;
9072;SDS011;4572;41.642;25.370;2023-02-24T07:23:35;33.37;;;11.90;;
9072;SDS011;4572;41.642;25.370;2023-02-24T07:26:05;14.43;;;5.17;;
9072;SDS011;4572;41.642;25.370;2023-02-24T07:28:34;10.47;;;5.10;;
9072;SDS011;4572;41.642;25.370;2023-02-24T07:31:03;11.23;;;5.80;;
9072;SDS011;4572;41.642;25.370;2023-02-24T07:33:33;14.93;;;6.03;;
9072;SDS011;4572;41.642;25.370;2023-02-24T07:36:01;18.67;;;9.40;;
9072;SDS011;4572;41.642;25.370;2023-02-24T07:38:35;14.27;;;6.40;;
9072;SDS011;4572;41.642;25.370;2023-02-24T07:41:01;11.17;;;5.63;;
9072;SDS011;4572;41.642;25.370;2023-02-24T07:43:28;15.80;;;7.93;;
9072;SDS011;4572;41.642;25.370;2023-02-24T07:45:54;13.30;;;6.37;;
9072;SDS011;4572;41.642;25.370;2023-02-24T07:48:22;20.67;;;6.37;;
9072;SDS011;4572;41.642;25.370;2023-02-24T07:50:47;21.40;;;7.70;;
9072;SDS011;4572;41.642;25.370;2023-02-24T07:53:15;22.13;;;7.07;;
9072;SDS011;4572;41.642;25.370;2023-02-24T07:55:40;21.30;;;8.50;;
9072;SDS011;4572;41.642;25.370;2023-02-24T07:58:06;11.43;;;6.10;;
9072;SDS011;4572;41.642;25.370;2023-02-24T08:00:31;14.47;;;5.73;;
9072;SDS011;4572;41.642;25.370;2023-02-24T08:03:14;13.23;;;5.70;;
9072;SDS011;4572;41.642;25.370;2023-02-24T08:05:39;8.63;;;5.77;;
9072;SDS011;4572;41.642;25.370;2023-02-24T08:08:07;12.77;;;5.97;;
9072;SDS011;4572;41.642;25.370;2023-02-24T08:10:33;12.17;;;5.20;;
9072;SDS011;4572;41.642;25.370;2023-02-24T08:13:01;11.37;;;6.30;;
9072;SDS011;4572;41.642;25.370;2023-02-24T08:15:28;13.17;;;5.60;;
9072;SDS011;4572;41.642;25.370;2023-02-24T08:17:58;16.73;;;6.00;;
9072;SDS011;4572;41.642;25.370;2023-02-24T08:20:25;10.03;;;6.10;;
9072;SDS011;4572;41.642;25.370;2023-02-24T08:22:54;15.10;;;6.50;;
9072;SDS011;4572;41.642;25.370;2023-02-24T08:25:24;12.97;;;5.60;;
9072;SDS011;4572;41.642;25.370;2023-02-24T08:27:59;14.77;;;6.10;;
9072;SDS011;4572;41.642;25.370;2023-02-24T08:30:29;11.10;;;5.83;;
9072;SDS011;4572;41.642;25.370;2023-02-24T08:33:02;26.90;;;8.40;;
9072;SDS011;4572;41.642;25.370;2023-02-24T08:35:30;11.97;;;6.27;;
9072;SDS011;4572;41.642;25.370;2023-02-24T08:37:59;28.47;;;6.90;;
9072;SDS011;4572;41.642;25.370;2023-02-24T08:40:34;15.93;;;6.53;;
9072;SDS011;4572;41.642;25.370;2023-02-24T08:43:14;13.67;;;6.80;;
9072;SDS011;4572;41.642;25.370;2023-02-24T08:46:04;11.67;;;6.23;;
9072;SDS011;4572;41.642;25.370;2023-02-24T08:51:25;13.23;;;6.90;;
9072;SDS011;4572;41.642;25.370;2023-02-24T08:54:00;19.47;;;7.57;;
9072;SDS011;4572;41.642;25.370;2023-02-24T08:56:35;12.13;;;7.53;;
9072;SDS011;4572;41.642;25.370;2023-02-24T08:59:02;11.33;;;6.43;;
9072;SDS011;4572;41.642;25.370;2023-02-24T09:01:34;22.60;;;7.57;;
9072;SDS011;4572;41.642;25.370;2023-02-24T09:04:05;14.50;;;8.03;;
9072;SDS011;4572;41.642;25.370;2023-02-24T09:06:41;15.47;;;8.10;;
9072;SDS011;4572;41.642;25.370;2023-02-24T09:09:08;13.57;;;7.97;;
9072;SDS011;4572;41.642;25.370;2023-02-24T09:14:20;13.63;;;7.70;;
9072;SDS011;4572;41.642;25.370;2023-02-24T09:16:51;24.00;;;8.90;;
9072;SDS011;4572;41.642;25.370;2023-02-24T09:22:11;15.93;;;10.23;;
9072;SDS011;4572;41.642;25.370;2023-02-24T09:25:16;24.00;;;12.13;;
9072;SDS011;4572;41.642;25.370;2023-02-24T09:30:37;13.40;;;8.87;;
9072;SDS011;4572;41.642;25.370;2023-02-24T09:46:55;14.90;;;9.30;;
9072;SDS011;4572;41.642;25.370;2023-02-24T09:49:29;14.37;;;8.93;;
9072;SDS011;4572;41.642;25.370;2023-02-24T09:52:10;15.63;;;8.93;;
9072;SDS011;4572;41.642;25.370;2023-02-24T09:54:42;21.07;;;11.20;;
9072;SDS011;4572;41.642;25.370;2023-02-24T09:57:37;18.13;;;10.67;;
9072;SDS011;4572;41.642;25.370;2023-02-24T10:00:26;20.00;;;15.40;;
9072;SDS011;4572;41.642;25.370;2023-02-24T10:06:12;14.70;;;10.20;;
9072;SDS011;4572;41.642;25.370;2023-02-24T10:08:40;20.40;;;10.40;;
9072;SDS011;4572;41.642;25.370;2023-02-24T10:11:09;21.13;;;10.37;;
9072;SDS011;4572;41.642;25.370;2023-02-24T10:13:46;16.83;;;10.70;;
9072;SDS011;4572;41.642;25.370;2023-02-24T10:16:13;17.27;;;10.53;;
9072;SDS011;4572;41.642;25.370;2023-02-24T10:18:52;16.67;;;10.73;;
9072;SDS011;4572;41.642;25.370;2023-02-24T10:29:55;22.83;;;14.17;;
9072;SDS011;4572;41.642;25.370;2023-02-24T10:32:54;14.63;;;10.03;;
9072;SDS011;4572;41.642;25.370;2023-02-24T10:35:23;12.87;;;10.23;;
9072;SDS011;4572;41.642;25.370;2023-02-24T10:37:53;19.37;;;11.30;;
9072;SDS011;4572;41.642;25.370;2023-02-24T10:40:29;17.70;;;11.50;;
9072;SDS011;4572;41.642;25.370;2023-02-24T10:43:09;13.30;;;9.20;;
9072;SDS011;4572;41.642;25.370;2023-02-24T10:45:39;14.17;;;9.67;;
9072;SDS011;4572;41.642;25.370;2023-02-24T10:48:14;25.80;;;11.30;;
9072;SDS011;4572;41.642;25.370;2023-02-24T10:50:51;23.43;;;11.17;;
9072;SDS011;4572;41.642;25.370;2023-02-24T10:53:19;18.87;;;12.70;;
9072;SDS011;4572;41.642;25.370;2023-02-24T10:56:05;17.47;;;10.90;;
9072;SDS011;4572;41.642;25.370;2023-02-24T10:59:03;28.53;;;12.53;;
9072;SDS011;4572;41.642;25.370;2023-02-24T11:01:50;21.93;;;14.77;;
9072;SDS011;4572;41.642;25.370;2023-02-24T11:04:29;22.43;;;11.53;;
9072;SDS011;4572;41.642;25.370;2023-02-24T11:07:20;16.67;;;12.63;;
9072;SDS011;4572;41.642;25.370;2023-02-24T11:10:05;16.63;;;10.90;;
9072;SDS011;4572;41.642;25.370;2023-02-24T11:12:37;19.50;;;11.17;;
9072;SDS011;4572;41.642;25.370;2023-02-24T11:15:42;17.10;;;10.43;;
9072;SDS011;4572;41.642;25.370;2023-02-24T11:18:30;33.03;;;18.80;;
9072;SDS011;4572;41.642;25.370;2023-02-24T11:21:00;34.83;;;22.50;;
9072;SDS011;4572;41.642;25.370;2023-02-24T11:23:38;24.43;;;15.17;;
9072;SDS011;4572;41.642;25.370;2023-02-24T11:26:14;20.30;;;12.70;;
9072;SDS011;4572;41.642;25.370;2023-02-24T11:28:57;16.47;;;11.27;;
9072;SDS011;4572;41.642;25.370;2023-02-24T11:37:39;20.53;;;12.87;;
9072;SDS011;4572;41.642;25.370;2023-02-24T11:40:20;21.10;;;11.50;;
9072;SDS011;4572;41.642;25.370;2023-02-24T11:42:50;16.10;;;10.90;;
9072;SDS011;4572;41.642;25.370;2023-02-24T11:45:32;16.13;;;12.33;;
9072;SDS011;4572;41.642;25.370;2023-02-24T11:53:34;33.67;;;23.17;;
9072;SDS011;4572;41.642;25.370;2023-02-24T11:56:10;18.67;;;11.50;;
9072;SDS011;4572;41.642;25.370;2023-02-24T12:01:27;15.63;;;10.97;;
9072;SDS011;4572;41.642;25.370;2023-02-24T12:06:56;15.90;;;10.97;;
9072;SDS011;4572;41.642;25.370;2023-02-24T12:09:25;35.57;;;18.40;;
9072;SDS011;4572;41.642;25.370;2023-02-24T12:12:03;66.27;;;38.97;;
9072;SDS011;4572;41.642;25.370;2023-02-24T12:14:39;31.47;;;20.70;;
9072;SDS011;4572;41.642;25.370;2023-02-24T12:22:27;12.83;;;10.33;;
9072;SDS011;4572;41.642;25.370;2023-02-24T12:24:55;14.75;;;9.68;;
9072;SDS011;4572;41.642;25.370;2023-02-24T12:27:40;14.47;;;8.90;;
9072;SDS011;4572;41.642;25.370;2023-02-24T12:33:19;15.67;;;9.87;;
9072;SDS011;4572;41.642;25.370;2023-02-24T12:41:57;19.30;;;14.60;;
9072;SDS011;4572;41.642;25.370;2023-02-24T12:50:12;9.70;;;8.07;;
9072;SDS011;4572;41.642;25.370;2023-02-24T12:53:01;13.67;;;9.63;;
9072;SDS011;4572;41.642;25.370;2023-02-24T12:55:39;14.13;;;10.17;;
9072;SDS011;4572;41.642;25.370;2023-02-24T12:58:18;15.73;;;12.23;;
9072;SDS011;4572;41.642;25.370;2023-02-24T13:00:52;22.70;;;13.93;;
9072;SDS011;4572;41.642;25.370;2023-02-24T13:03:40;20.10;;;11.00;;
9072;SDS011;4572;41.642;25.370;2023-02-24T13:06:35;14.17;;;9.77;;
9072;SDS011;4572;41.642;25.370;2023-02-24T13:09:23;36.83;;;23.43;;
9072;SDS011;4572;41.642;25.370;2023-02-24T13:11:57;42.00;;;29.87;;
9072;SDS011;4572;41.642;25.370;2023-02-24T13:14:55;24.80;;;10.83;;
9072;SDS011;4572;41.642;25.370;2023-02-24T13:17:21;22.55;;;10.95;;
9072;SDS011;4572;41.642;25.370;2023-02-24T13:19:49;17.63;;;10.53;;
9072;SDS011;4572;41.642;25.370;2023-02-24T13:29:50;15.87;;;10.27;;
9072;SDS011;4572;41.642;25.370;2023-02-24T13:35:01;13.07;;;9.60;;
9072;SDS011;4572;41.642;25.370;2023-02-24T13:39:58;10.80;;;8.30;;
9072;SDS011;4572;41.642;25.370;2023-02-24T13:42:25;11.23;;;8.97;;
9072;SDS011;4572;41.642;25.370;2023-02-24T13:50:31;12.00;;;9.57;;
9072;SDS011;4572;41.642;25.370;2023-02-24T14:01:13;19.10;;;10.73;;
9072;SDS011;4572;41.642;25.370;2023-02-24T14:03:40;14.57;;;9.88;;
9072;SDS011;4572;41.642;25.370;2023-02-24T14:06:16;20.08;;;10.93;;
9072;SDS011;4572;41.642;25.370;2023-02-24T14:08:56;31.15;;;16.63;;
9072;SDS011;4572;41.642;25.370;2023-02-24T14:11:24;20.40;;;12.37;;
9072;SDS011;4572;41.642;25.370;2023-02-24T14:13:53;13.38;;;9.40;;
9072;SDS011;4572;41.642;25.370;2023-02-24T14:16:21;11.40;;;8.70;;
9072;SDS011;4572;41.642;25.370;2023-02-24T14:18:54;13.93;;;8.70;;
9072;SDS011;4572;41.642;25.370;2023-02-24T14:21:22;16.70;;;9.80;;
9072;SDS011;4572;41.642;25.370;2023-02-24T14:23:59;18.27;;;10.00;;
9072;SDS011;4572;41.642;25.370;2023-02-24T14:26:27;23.87;;;9.87;;
9072;SDS011;4572;41.642;25.370;2023-02-24T14:28:55;12.93;;;8.37;;
9072;SDS011;4572;41.642;25.370;2023-02-24T14:31:21;23.97;;;9.33;;
9072;SDS011;4572;41.642;25.370;2023-02-24T14:33:52;27.97;;;18.23;;
9072;SDS011;4572;41.642;25.370;2023-02-24T14:36:25;19.13;;;12.03;;
9072;SDS011;4572;41.642;25.370;2023-02-24T14:41:34;13.50;;;8.37;;
9072;SDS011;4572;41.642;25.370;2023-02-24T14:44:04;15.77;;;11.00;;
9072;SDS011;4572;41.642;25.370;2023-02-24T14:46:52;12.00;;;8.13;;
9072;SDS011;4572;41.642;25.370;2023-02-24T14:49:30;21.77;;;10.63;;
9072;SDS011;4572;41.642;25.370;2023-02-24T14:52:02;20.40;;;10.00;;
9072;SDS011;4572;41.642;25.370;2023-02-24T14:57:18;13.43;;;9.07;;
9072;SDS011;4572;41.642;25.370;2023-02-24T14:59:47;27.47;;;10.23;;
9072;SDS011;4572;41.642;25.370;2023-02-24T15:02:14;26.90;;;10.77;;
9072;SDS011;4572;41.642;25.370;2023-02-24T15:04:43;22.07;;;10.57;;
9072;SDS011;4572;41.642;25.370;2023-02-24T15:07:29;17.43;;;10.00;;
9072;SDS011;4572;41.642;25.370;2023-02-24T15:09:58;13.03;;;9.87;;
9072;SDS011;4572;41.642;25.370;2023-02-24T15:12:29;26.17;;;15.10;;
9072;SDS011;4572;41.642;25.370;2023-02-24T15:14:58;19.77;;;10.87;;
9072;SDS011;4572;41.642;25.370;2023-02-24T15:17:25;15.30;;;9.57;;
9072;SDS011;4572;41.642;25.370;2023-02-24T15:19:51;38.63;;;23.50;;
9072;SDS011;4572;41.642;25.370;2023-02-24T15:24:53;64.53;;;47.00;;
9072;SDS011;4572;41.642;25.370;2023-02-24T15:27:22;16.17;;;9.60;;
9072;SDS011;4572;41.642;25.370;2023-02-24T15:30:05;19.67;;;9.40;;
9072;SDS011;4572;41.642;25.370;2023-02-24T15:32:45;21.20;;;11.97;;
9072;SDS011;4572;41.642;25.370;2023-02-24T15:35:21;14.53;;;9.37;;
9072;SDS011;4572;41.642;25.370;2023-02-24T15:37:49;19.70;;;11.70;;
9072;SDS011;4572;41.642;25.370;2023-02-24T15:40:16;21.87;;;10.93;;
9072;SDS011;4572;41.642;25.370;2023-02-24T15:43:29;16.20;;;11.20;;
9072;SDS011;4572;41.642;25.370;2023-02-24T15:45:35;20.30;;;10.20;;
9072;SDS011;4572;41.642;25.370;2023-02-24T15:48:03;17.27;;;10.13;;
9072;SDS011;4572;41.642;25.370;2023-02-24T15:50:44;17.70;;;13.43;;
9072;SDS011;4572;41.642;25.370;2023-02-24T15:53:10;12.73;;;9.70;;
9072;SDS011;4572;41.642;25.370;2023-02-24T15:55:37;18.43;;;11.23;;
9072;SDS011;4572;41.642;25.370;2023-02-24T15:58:05;26.77;;;11.73;;
9072;SDS011;4572;41.642;25.370;2023-02-24T16:00:38;14.50;;;10.50;;
9072;SDS011;4572;41.642;25.370;2023-02-24T16:03:04;22.60;;;11.90;;
9072;SDS011;4572;41.642;25.370;2023-02-24T16:05:29;20.03;;;12.10;;
9072;SDS011;4572;41.642;25.370;2023-02-24T16:07:54;38.37;;;23.00;;
9072;SDS011;4572;41.642;25.370;2023-02-24T16:10:22;33.53;;;15.47;;
9072;SDS011;4572;41.642;25.370;2023-02-24T16:13:14;22.10;;;12.57;;
9072;SDS011;4572;41.642;25.370;2023-02-24T16:15:39;18.80;;;11.87;;
9072;SDS011;4572;41.642;25.370;2023-02-24T16:18:09;18.17;;;11.70;;
9072;SDS011;4572;41.642;25.370;2023-02-24T16:20:43;22.13;;;12.30;;
9072;SDS011;4572;41.642;25.370;2023-02-24T16:23:13;20.57;;;13.20;;
9072;SDS011;4572;41.642;25.370;2023-02-24T16:25:42;20.87;;;12.87;;
9072;SDS011;4572;41.642;25.370;2023-02-24T16:28:12;24.83;;;12.10;;
9072;SDS011;4572;41.642;25.370;2023-02-24T16:30:39;16.80;;;12.73;;
9072;SDS011;4572;41.642;25.370;2023-02-24T16:33:08;27.37;;;15.43;;
9072;SDS011;4572;41.642;25.370;2023-02-24T16:35:37;23.87;;;14.57;;
9072;SDS011;4572;41.642;25.370;2023-02-24T16:38:03;24.30;;;15.67;;
9072;SDS011;4572;41.642;25.370;2023-02-24T16:40:30;24.93;;;15.97;;
9072;SDS011;4572;41.642;25.370;2023-02-24T16:43:02;29.50;;;14.43;;
9072;SDS011;4572;41.642;25.370;2023-02-24T16:45:29;24.03;;;15.17;;
9072;SDS011;4572;41.642;25.370;2023-02-24T16:47:55;21.73;;;15.67;;
9072;SDS011;4572;41.642;25.370;2023-02-24T16:50:28;23.17;;;15.40;;
9072;SDS011;4572;41.642;25.370;2023-02-24T16:52:58;21.30;;;16.67;;
9072;SDS011;4572;41.642;25.370;2023-02-24T16:55:24;21.83;;;14.43;;
9072;SDS011;4572;41.642;25.370;2023-02-24T16:57:49;23.17;;;15.10;;
9072;SDS011;4572;41.642;25.370;2023-02-24T17:00:16;28.43;;;16.80;;
9072;SDS011;4572;41.642;25.370;2023-02-24T17:02:42;28.30;;;17.37;;
9072;SDS011;4572;41.642;25.370;2023-02-24T17:05:29;25.87;;;16.93;;
9072;SDS011;4572;41.642;25.370;2023-02-24T17:07:55;28.00;;;15.47;;
9072;SDS011;4572;41.642;25.370;2023-02-24T17:10:21;24.27;;;17.17;;
9072;SDS011;4572;41.642;25.370;2023-02-24T17:12:48;26.63;;;18.27;;
9072;SDS011;4572;41.642;25.370;2023-02-24T17:15:14;26.40;;;18.03;;
9072;SDS011;4572;41.642;25.370;2023-02-24T17:17:47;31.07;;;20.47;;
9072;SDS011;4572;41.642;25.370;2023-02-24T17:20:13;29.97;;;19.97;;
9072;SDS011;4572;41.642;25.370;2023-02-24T17:22:41;27.47;;;17.30;;
9072;SDS011;4572;41.642;25.370;2023-02-24T17:25:10;29.60;;;18.80;;
9072;SDS011;4572;41.642;25.370;2023-02-24T17:27:39;32.90;;;20.10;;
9072;SDS011;4572;41.642;25.370;2023-02-24T17:30:05;28.73;;;18.83;;